Time;durP1;ratioP1;P1;durP2;ratioP2;P2;SDS_P1;SDS_P2;PMS_P1;PMS_P2;Temp;Humidity;BMP_temperature;BMP_pressure;BME280_temperature;BME280_humidity;BME280_pressure;Samples;Min_cycle;Max_cycle;Signal;HPM_P1;HPM_P2
2024/04/06 00:00:42;;;;;;;;;;;;;;;-144.99;93.81;52529.63;4983676;28;19957;-67
2024/04/06 00:03:09;;;;;;;;;;;;;;;-144.99;93.11;52539.81;4977166;28;20017;-67
2024/04/06 00:05:35;;;;;;;;;;;;;;;-144.99;93.73;52550.00;4991005;28;19961;-68
2024/04/06 00:08:01;;;;;;;;;;;;;;;-144.99;93.76;52545.94;4983705;28;20020;-66
2024/04/06 00:10:27;;;;;;;;;;;;;;;-144.99;93.23;52521.47;4993196;28;20326;-67
2024/04/06 00:12:54;;;;;;;;;;;;;;;-144.99;93.28;52558.16;4980520;28;20012;-68
2024/04/06 00:15:21;;;;;;;;;;;;;;;-144.99;93.26;52552.03;4980599;28;19953;-67
2024/04/06 00:17:46;;;;;;;;;;;;;;;-144.99;93.38;52562.25;4981386;28;20006;-67
2024/04/06 00:20:12;;;;;;;;;;;;;;;-144.99;93.91;52566.31;4980155;28;20016;-67
2024/04/06 00:22:38;;;;;;;;;;;;;;;-144.99;94.48;52525.56;4985444;28;20307;-67
2024/04/06 00:25:05;;;;;;;;;;;;;;;-144.99;94.45;52554.09;4976261;28;19930;-67
2024/04/06 00:27:31;;;;;;;;;;;;;;;-144.99;94.41;52554.09;4992911;28;19972;-67
2024/04/06 00:29:58;;;;;;;;;;;;;;;-144.99;95.04;52566.31;4977708;28;20399;-66
2024/04/06 00:32:24;;;;;;;;;;;;;;;-144.99;95.70;52556.13;4980048;28;20395;-67
2024/04/06 00:34:50;;;;;;;;;;;;;;;-144.99;95.91;52582.63;4985577;28;19933;-67
2024/04/06 00:37:16;;;;;;;;;;;;;;;-144.99;94.87;52525.56;4979447;28;19972;-66
2024/04/06 00:39:42;;;;;;;;;;;;;;;-144.99;95.37;52545.94;4986079;28;19973;-66
2024/04/06 00:42:08;;;;;;;;;;;;;;;-144.99;95.58;52541.84;4976215;28;19976;-66
2024/04/06 00:44:34;;;;;;;;;;;;;;;-144.99;95.50;52578.53;4991514;28;20009;-67
2024/04/06 00:47:02;;;;;;;;;;;;;;;-144.99;95.95;52586.69;4985544;28;20506;-68
2024/04/06 00:49:28;;;;;;;;;;;;;;;-144.99;96.16;52582.63;4980129;28;19988;-67
2024/04/06 00:51:54;;;;;;;;;;;;;;;-144.99;96.39;52570.38;4974142;28;19980;-67
2024/04/06 00:54:20;;;;;;;;;;;;;;;-144.99;96.35;52550.00;4969129;28;19973;-67
2024/04/06 00:56:48;;;;;;;;;;;;;;;-144.99;96.57;52574.47;4982940;28;20024;-66
2024/04/06 00:59:15;;;;;;;;;;;;;;;-144.99;96.64;52543.91;4983869;28;19937;-67
2024/04/06 01:01:41;;;;;;;;;;;;;;;-144.99;96.71;52501.09;4974515;28;19930;-67
2024/04/06 01:04:09;;;;;;;;;;;;;;;-144.99;97.08;52517.41;4978821;28;20436;-67
2024/04/06 01:06:34;;;;;;;;;;;;;;;-144.99;96.96;52574.47;4984582;28;20013;-66
2024/04/06 01:09:01;;;;;;;;;;;;;;;-144.99;96.41;52554.09;4975834;28;20360;-68
2024/04/06 01:11:26;;;;;;;;;;;;;;;-144.99;96.05;52550.00;4992295;28;19973;-64
2024/04/06 01:13:53;;;;;;;;;;;;;;;-144.99;96.38;52558.16;4988437;28;20053;-66
2024/04/06 01:16:18;;;;;;;;;;;;;;;-144.99;96.47;52562.25;4977306;28;20064;-64
2024/04/06 01:18:45;;;;;;;;;;;;;;;-144.99;97.10;52499.06;4985003;28;20435;-65
2024/04/06 01:21:11;;;;;;;;;;;;;;;-144.99;97.10;52566.31;4981264;28;20448;-63
2024/04/06 01:23:38;;;;;;;;;;;;;;;-144.99;97.25;52570.38;4984733;28;20021;-63
2024/04/06 01:26:05;;;;;;;;;;;;;;;-144.99;97.46;52558.16;4974142;28;19968;-65
2024/04/06 01:28:32;;;;;;;;;;;;;;;-144.99;97.08;52550.00;4986243;28;20343;-65
2024/04/06 01:30:57;;;;;;;;;;;;;;;-144.99;97.10;52550.00;4987780;28;19972;-66
2024/04/06 01:33:24;;;;;;;;;;;;;;;-144.99;97.09;52545.94;4993960;28;20409;-67
2024/04/06 01:35:50;;;;;;;;;;;;;;;-144.99;96.99;52554.09;4981127;28;19933;-67
2024/04/06 01:38:16;;;;;;;;;;;;;;;-144.99;97.24;52533.69;4978529;28;19964;-67
2024/04/06 01:40:41;;;;;;;;;;;;;;;-144.99;97.28;52550.00;4989013;28;20028;-67
2024/04/06 01:43:09;;;;;;;;;;;;;;;-144.99;97.32;52550.00;4983433;28;20016;-66
2024/04/06 01:45:35;;;;;;;;;;;;;;;-144.99;98.00;52570.38;4988000;28;19930;-68
2024/04/06 01:48:01;;;;;;;;;;;;;;;-144.99;98.24;52550.00;4983438;28;19953;-68
2024/04/06 01:50:27;;;;;;;;;;;;;;;-144.99;98.63;52558.16;4981760;28;19992;-68
2024/04/06 01:52:54;;;;;;;;;;;;;;;-144.99;98.28;52545.94;4983798;28;19973;-70
2024/04/06 01:55:22;;;;;;;;;;;;;;;-144.99;98.65;52541.84;4978306;28;20147;-70
2024/04/06 01:57:48;;;;;;;;;;;;;;;-144.99;99.02;52570.38;4983040;28;19926;-70
2024/04/06 02:00:15;;;;;;;;;;;;;;;-144.99;98.91;52568.34;4982386;28;20478;-71
2024/04/06 02:02:42;;;;;;;;;;;;;;;-144.99;99.13;52558.16;4983068;28;19929;-69
2024/04/06 02:05:07;;;;;;;;;;;;;;;-144.99;99.27;52566.31;4980403;28;19997;-69
2024/04/06 02:07:34;;;;;;;;;;;;;;;-144.99;99.24;52570.38;4983388;28;19964;-69
2024/04/06 02:09:59;;;;;;;;;;;;;;;-144.99;98.92;52541.84;4981992;28;20023;-68
2024/04/06 02:12:27;;;;;;;;;;;;;;;-144.99;99.18;52558.16;4986805;28;20360;-68
2024/04/06 02:14:52;;;;;;;;;;;;;;;-144.99;98.82;52545.94;4991371;28;20380;-69
2024/04/06 02:17:20;;;;;;;;;;;;;;;-144.99;98.72;52560.19;4985036;28;19930;-68
2024/04/06 02:19:46;;;;;;;;;;;;;;;-144.99;99.06;52562.25;4973912;28;19932;-69
2024/04/06 02:22:12;;;;;;;;;;;;;;;-144.99;99.55;52533.69;4982290;28;19930;-69
2024/04/06 02:24:38;;;;;;;;;;;;;;;-144.99;98.87;52531.66;4980440;28;19965;-69
2024/04/06 02:27:05;;;;;;;;;;;;;;;-144.99;99.62;52545.94;4986359;28;19966;-71
2024/04/06 02:29:30;;;;;;;;;;;;;;;-144.99;99.15;52578.53;4633174;28;10000082;-71
2024/04/06 02:31:58;;;;;;;;;;;;;;;-144.99;99.33;52517.41;4982868;28;19969;-69
2024/04/06 02:34:25;;;;;;;;;;;;;;;-144.99;99.90;52537.78;4984794;28;19933;-69
2024/04/06 02:36:52;;;;;;;;;;;;;;;-144.99;99.81;52560.19;4985875;28;20356;-69
2024/04/06 02:39:18;;;;;;;;;;;;;;;-144.99;100.00;52541.84;5000448;28;19925;-68
2024/04/06 02:41:44;;;;;;;;;;;;;;;-144.99;100.00;52562.25;4981034;28;19926;-67
2024/04/06 02:44:10;;;;;;;;;;;;;;;-144.99;100.00;52519.44;4981421;28;20002;-67
2024/04/06 02:46:37;;;;;;;;;;;;;;;-144.99;100.00;52554.09;4984485;28;19981;-69
2024/04/06 02:49:02;;;;;;;;;;;;;;;-144.99;99.97;52550.00;4985472;28;19926;-63
2024/04/06 02:51:30;;;;;;;;;;;;;;;-144.99;99.91;52545.94;4984012;28;19980;-63
2024/04/06 02:53:55;;;;;;;;;;;;;;;-144.99;100.00;52578.53;4988615;28;19965;-63
2024/04/06 02:56:22;;;;;;;;;;;;;;;-144.99;100.00;52539.81;4982596;28;19973;-65
2024/04/06 02:58:47;;;;;;;;;;;;;;;-144.99;100.00;52541.84;4983455;28;19926;-65
2024/04/06 03:01:14;;;;;;;;;;;;;;;-144.99;100.00;52566.31;4987535;28;19926;-63
2024/04/06 03:03:40;;;;;;;;;;;;;;;-144.99;100.00;52525.56;4976171;28;20001;-64
2024/04/06 03:06:06;;;;;;;;;;;;;;;-144.99;100.00;52560.19;4986020;28;19949;-64
2024/04/06 03:08:34;;;;;;;;;;;;;;;-144.99;99.94;52529.63;4992202;28;19933;-65
2024/04/06 03:10:59;;;;;;;;;;;;;;;-144.99;100.00;52558.16;4987746;28;20053;-66
2024/04/06 03:13:26;;;;;;;;;;;;;;;-144.99;100.00;52560.19;4989152;28;19950;-65
2024/04/06 03:15:51;;;;;;;;;;;;;;;-144.99;99.97;52590.78;4982592;28;20277;-63
2024/04/06 03:18:18;;;;;;;;;;;;;;;-144.99;100.00;52537.78;4974877;28;19926;-64
2024/04/06 03:20:43;;;;;;;;;;;;;;;-144.99;100.00;52529.63;4972555;28;19973;-64
2024/04/06 03:23:10;;;;;;;;;;;;;;;-144.99;99.87;52566.31;4984156;28;19933;-64
2024/04/06 03:25:36;;;;;;;;;;;;;;;-144.99;99.73;52554.09;4983972;28;20008;-64
2024/04/06 03:28:03;;;;;;;;;;;;;;;-144.99;99.78;52529.63;4989088;28;20455;-64
2024/04/06 03:30:28;;;;;;;;;;;;;;;-144.99;99.24;52545.94;4979479;28;20395;-64
2024/04/06 03:32:55;;;;;;;;;;;;;;;-144.99;99.57;52529.63;4998326;28;20044;-64
2024/04/06 03:35:21;;;;;;;;;;;;;;;-144.99;99.60;52574.47;4983132;28;19977;-64
2024/04/06 03:37:48;;;;;;;;;;;;;;;-144.99;99.04;52545.94;4979571;28;19970;-64
2024/04/06 03:40:15;;;;;;;;;;;;;;;-144.99;99.79;52550.00;4984447;28;19933;-64
2024/04/06 03:42:42;;;;;;;;;;;;;;;-144.99;99.35;52562.25;4994954;28;19930;-64
2024/04/06 03:45:10;;;;;;;;;;;;;;;-144.99;99.58;52529.63;4999389;28;20360;-63
2024/04/06 03:47:37;;;;;;;;;;;;;;;-144.99;99.24;52537.78;4988169;28;19930;-63
2024/04/06 03:50:03;;;;;;;;;;;;;;;-144.99;99.14;52525.56;4980875;28;19929;-68
2024/04/06 03:52:29;;;;;;;;;;;;;;;-144.99;99.58;52562.25;4990118;28;19930;-68
2024/04/06 03:54:55;;;;;;;;;;;;;;;-144.99;99.57;52541.84;5000343;28;19933;-67
2024/04/06 03:57:21;;;;;;;;;;;;;;;-144.99;99.52;52545.94;4985358;28;19978;-68
2024/04/06 03:59:49;;;;;;;;;;;;;;;-144.99;99.68;52547.97;4987262;28;20023;-68
2024/04/06 04:02:15;;;;;;;;;;;;;;;-144.99;100.00;52529.63;4991936;28;19925;-67
2024/04/06 04:04:42;;;;;;;;;;;;;;;-144.99;99.86;52558.16;4984111;28;19933;-68
2024/04/06 04:07:07;;;;;;;;;;;;;;;-144.99;100.00;52552.03;4999706;28;20415;-68
2024/04/06 04:09:34;;;;;;;;;;;;;;;-144.99;100.00;52529.63;4984656;28;19981;-68
2024/04/06 04:12:00;;;;;;;;;;;;;;;-144.99;99.86;52515.34;4998144;28;20347;-68
2024/04/06 04:14:26;;;;;;;;;;;;;;;-144.99;100.00;52529.63;4993443;28;20032;-68
2024/04/06 04:16:53;;;;;;;;;;;;;;;-144.99;100.00;52566.31;4990623;28;20337;-68
2024/04/06 04:19:20;;;;;;;;;;;;;;;-144.99;100.00;52570.38;4988974;28;19941;-67
2024/04/06 04:21:45;;;;;;;;;;;;;;;-144.99;99.92;52543.91;4989416;28;20020;-66
2024/04/06 04:24:12;;;;;;;;;;;;;;;-144.99;100.00;52558.16;4984440;28;20020;-68
2024/04/06 04:26:37;;;;;;;;;;;;;;;-144.99;100.00;52531.66;4997606;28;20016;-69
2024/04/06 04:29:04;;;;;;;;;;;;;;;-144.99;100.00;52550.00;4991392;28;20028;-66
2024/04/06 04:31:30;;;;;;;;;;;;;;;-144.99;100.00;52531.66;4982031;28;19930;-65
2024/04/06 04:33:57;;;;;;;;;;;;;;;-144.99;100.00;52541.84;4993306;28;19933;-66
2024/04/06 04:36:23;;;;;;;;;;;;;;;-144.99;99.62;52566.31;4993651;28;19944;-67
2024/04/06 04:38:50;;;;;;;;;;;;;;;-144.99;100.00;52560.19;4997228;28;20016;-67
2024/04/06 04:41:15;;;;;;;;;;;;;;;-144.99;99.54;52554.09;4996542;28;19934;-65
2024/04/06 04:43:42;;;;;;;;;;;;;;;-144.99;100.00;52554.09;4998690;28;19925;-65
2024/04/06 04:46:08;;;;;;;;;;;;;;;-144.99;100.00;52529.63;4986699;28;19938;-65
2024/04/06 04:48:49;;;;;;;;;;;;;;;-144.99;100.00;52550.00;4986925;28;20265;-69
2024/04/06 04:51:16;;;;;;;;;;;;;;;-144.99;100.00;52570.38;4981097;28;19976;-71
2024/04/06 04:53:42;;;;;;;;;;;;;;;-144.99;100.00;52558.16;4984673;28;20028;-69
2024/04/06 04:56:08;;;;;;;;;;;;;;;-144.99;100.00;52568.34;4991583;28;19934;-68
2024/04/06 04:58:34;;;;;;;;;;;;;;;-144.99;100.00;52552.03;4991108;28;20008;-69
2024/04/06 05:01:00;;;;;;;;;;;;;;;-144.99;100.00;52603.00;4983895;28;20465;-69
2024/04/06 05:03:26;;;;;;;;;;;;;;;-144.99;100.00;52537.78;4989808;28;19960;-69
2024/04/06 05:05:53;;;;;;;;;;;;;;;-144.99;100.00;52570.38;4987891;28;19981;-70
2024/04/06 05:08:21;;;;;;;;;;;;;;;-144.99;100.00;52558.16;5001923;28;19972;-68
2024/04/06 05:10:46;;;;;;;;;;;;;;;-144.99;100.00;52541.84;4991330;28;20019;-69
2024/04/06 05:13:14;;;;;;;;;;;;;;;-144.99;100.00;52578.53;4991584;28;19969;-66
2024/04/06 05:15:40;;;;;;;;;;;;;;;-144.99;100.00;52525.56;4981367;28;19980;-66
2024/04/06 05:18:06;;;;;;;;;;;;;;;-144.99;100.00;52541.84;4981396;28;19969;-67
2024/04/06 05:20:35;;;;;;;;;;;;;;;-144.99;100.00;52521.47;4978226;28;20012;-66
2024/04/06 05:23:01;;;;;;;;;;;;;;;-144.99;100.00;52552.03;4984813;28;20080;-67
2024/04/06 05:25:28;;;;;;;;;;;;;;;-144.99;100.00;52594.84;4981095;28;19977;-66
2024/04/06 05:27:55;;;;;;;;;;;;;;;-144.99;100.00;52537.78;4983323;28;20021;-66
2024/04/06 05:30:20;;;;;;;;;;;;;;;-144.99;100.00;52562.25;4981686;28;19941;-66
2024/04/06 05:32:47;;;;;;;;;;;;;;;-144.99;100.00;52545.94;4980945;28;20299;-66
2024/04/06 05:35:12;;;;;;;;;;;;;;;-144.99;100.00;52558.16;4974715;28;20403;-66
2024/04/06 05:37:39;;;;;;;;;;;;;;;-144.99;100.00;52539.81;4981121;28;20009;-66
2024/04/06 05:40:05;;;;;;;;;;;;;;;-144.99;100.00;52541.84;4986204;28;20300;-67
2024/04/06 05:42:32;;;;;;;;;;;;;;;-144.99;100.00;52533.69;4983143;28;19954;-66
2024/04/06 05:44:58;;;;;;;;;;;;;;;-144.99;100.00;52545.94;4986606;28;20399;-66
2024/04/06 05:47:24;;;;;;;;;;;;;;;-144.99;100.00;52560.19;4977636;28;19962;-66
2024/04/06 05:49:50;;;;;;;;;;;;;;;-144.99;100.00;52533.69;4987468;28;20400;-66
2024/04/06 05:52:16;;;;;;;;;;;;;;;-144.99;100.00;52513.31;4976189;28;19968;-66
2024/04/06 05:54:42;;;;;;;;;;;;;;;-144.99;100.00;52529.63;4988771;28;20475;-65
2024/04/06 05:57:08;;;;;;;;;;;;;;;-144.99;100.00;52525.56;4988705;28;20060;-64
2024/04/06 05:59:35;;;;;;;;;;;;;;;-144.99;100.00;52550.00;4987045;28;20388;-65
2024/04/06 06:02:03;;;;;;;;;;;;;;;-144.99;100.00;52525.56;4977629;28;19934;-67
2024/04/06 06:04:29;;;;;;;;;;;;;;;-144.99;100.00;52525.56;4995895;28;19936;-64
2024/04/06 06:06:55;;;;;;;;;;;;;;;-144.99;100.00;52558.16;4988463;28;19926;-64
2024/04/06 06:09:21;;;;;;;;;;;;;;;-144.99;100.00;52541.84;4975770;28;20032;-68
2024/04/06 06:11:47;;;;;;;;;;;;;;;-144.99;100.00;52545.94;4989532;28;20028;-67
2024/04/06 06:14:13;;;;;;;;;;;;;;;-144.99;100.00;52494.97;4989152;28;20024;-67
2024/04/06 06:16:40;;;;;;;;;;;;;;;-144.99;100.00;52505.16;4985797;28;20356;-68
2024/04/06 06:19:06;;;;;;;;;;;;;;;-144.99;100.00;52533.69;4983090;28;20234;-67
2024/04/06 06:21:32;;;;;;;;;;;;;;;-144.99;99.91;52529.63;4987999;28;19984;-67
2024/04/06 06:23:58;;;;;;;;;;;;;;;-144.99;99.15;52558.16;4978709;28;20302;-67
2024/04/06 06:26:24;;;;;;;;;;;;;;;-144.99;98.54;52533.69;4992877;28;19969;-66
2024/04/06 06:28:50;;;;;;;;;;;;;;;-144.99;97.81;52515.34;4990671;28;19964;-68
2024/04/06 06:31:16;;;;;;;;;;;;;;;-144.99;97.71;52464.41;4985434;28;19965;-68
2024/04/06 06:33:43;;;;;;;;;;;;;;;-144.99;97.64;52527.59;4985381;28;20357;-65
2024/04/06 06:36:13;;;;;;;;;;;;;;;-144.99;97.64;52472.56;4976514;28;19926;-66
2024/04/06 06:38:39;;;;;;;;;;;;;;;-144.99;97.05;52505.16;4992475;28;19940;-66
2024/04/06 06:41:05;;;;;;;;;;;;;;;-144.99;96.33;52468.47;4983191;28;19930;-65
2024/04/06 06:43:31;;;;;;;;;;;;;;;-144.99;95.37;52488.84;4983859;28;20375;-65
2024/04/06 06:45:57;;;;;;;;;;;;;;;-144.99;95.26;52513.31;4990397;28;19964;-65
2024/04/06 06:48:23;;;;;;;;;;;;;;;-144.99;94.39;52444.03;4989133;28;19980;-66
2024/04/06 06:50:51;;;;;;;;;;;;;;;-144.99;94.62;52525.56;4986644;28;20344;-66
2024/04/06 06:53:16;;;;;;;;;;;;;;;-144.99;93.97;52513.31;4978458;28;20455;-66
2024/04/06 06:55:43;;;;;;;;;;;;;;;-144.99;92.86;52505.16;4976894;28;20016;-67
2024/04/06 06:58:08;;;;;;;;;;;;;;;-144.99;92.82;52488.84;4979677;28;20048;-66
2024/04/06 07:00:36;;;;;;;;;;;;;;;-144.99;91.80;52497.00;4981565;28;20393;-65
2024/04/06 07:03:01;;;;;;;;;;;;;;;-144.99;91.47;52472.56;4985090;28;20380;-66
2024/04/06 07:05:28;;;;;;;;;;;;;;;-144.99;91.93;52480.72;4990306;28;19981;-67
2024/04/06 07:07:54;;;;;;;;;;;;;;;-144.99;91.99;52480.72;4979510;28;20013;-69
2024/04/06 07:10:22;;;;;;;;;;;;;;;-144.99;91.98;52501.09;4997130;28;20038;-64
2024/04/06 07:12:48;;;;;;;;;;;;;;;-144.99;90.75;52492.94;4986878;28;19925;-66
2024/04/06 07:15:14;;;;;;;;;;;;;;;-144.99;90.30;52450.13;4989674;28;20031;-64
2024/04/06 07:17:40;;;;;;;;;;;;;;;-144.99;89.55;52472.56;5000601;28;19925;-65
2024/04/06 07:20:08;;;;;;;;;;;;;;;-144.99;89.52;52444.03;4992667;28;19985;-64
2024/04/06 07:22:33;;;;;;;;;;;;;;;-144.99;89.82;52482.75;4992863;28;20014;-65
2024/04/06 07:25:00;;;;;;;;;;;;;;;-144.99;90.10;52464.41;4986661;28;19930;-65
2024/04/06 07:27:27;;;;;;;;;;;;;;;-144.99;90.11;52494.97;4992702;28;20358;-65
2024/04/06 07:29:54;;;;;;;;;;;;;;;-144.99;91.46;52472.56;4993221;28;20387;-64
2024/04/06 07:32:19;;;;;;;;;;;;;;;-144.99;91.51;52450.13;4992186;28;20013;-65
2024/04/06 07:34:46;;;;;;;;;;;;;;;-144.99;91.54;52505.16;4986075;28;20444;-64
2024/04/06 07:37:11;;;;;;;;;;;;;;;-144.99;91.93;52468.47;4983162;28;20068;-65
2024/04/06 07:39:38;;;;;;;;;;;;;;;-144.99;92.03;52450.13;4993370;28;20024;-66
2024/04/06 07:42:03;;;;;;;;;;;;;;;-144.99;91.58;52454.22;4989400;28;20374;-65
2024/04/06 07:44:31;;;;;;;;;;;;;;;-144.99;90.11;52452.16;4990833;28;20017;-67
2024/04/06 07:46:57;;;;;;;;;;;;;;;-144.99;90.24;52448.09;4998355;28;20255;-66
2024/04/06 07:49:23;;;;;;;;;;;;;;;-144.99;90.00;52452.16;4992619;28;19970;-65
2024/04/06 07:51:49;;;;;;;;;;;;;;;-144.99;89.84;52431.78;4994134;28;20006;-65
2024/04/06 07:54:15;;;;;;;;;;;;;;;-144.99;89.67;52427.72;4985698;28;20248;-66
2024/04/06 07:56:42;;;;;;;;;;;;;;;-144.99;89.96;52448.09;4989941;28;19973;-66
2024/04/06 07:59:08;;;;;;;;;;;;;;;-144.99;89.75;52444.03;4984475;28;20021;-66
2024/04/06 08:01:35;;;;;;;;;;;;;;;-144.99;90.48;52464.41;4993273;28;20063;-66
2024/04/06 08:04:01;;;;;;;;;;;;;;;-144.99;90.19;52448.09;4986746;28;19937;-66
2024/04/06 08:06:27;;;;;;;;;;;;;;;-144.99;91.05;52462.34;4990432;28;20008;-66
2024/04/06 08:08:53;;;;;;;;;;;;;;;-144.99;91.61;52456.25;4984813;28;20356;-65
2024/04/06 08:11:19;;;;;;;;;;;;;;;-144.99;91.66;52441.97;4985497;28;19926;-65
2024/04/06 08:13:46;;;;;;;;;;;;;;;-144.99;91.99;52468.47;4982663;28;19953;-66
2024/04/06 08:16:11;;;;;;;;;;;;;;;-144.99;93.31;52444.03;4984964;28;20005;-66
2024/04/06 08:18:39;;;;;;;;;;;;;;;-144.99;94.92;52448.09;4982548;28;20021;-65
2024/04/06 08:21:05;;;;;;;;;;;;;;;-144.99;94.57;52446.06;4991647;28;20438;-65
2024/04/06 08:23:32;;;;;;;;;;;;;;;-144.99;94.44;52476.63;4988221;28;20400;-65
2024/04/06 08:25:57;;;;;;;;;;;;;;;-144.99;93.90;52427.72;4987003;28;20286;-60
2024/04/06 08:28:23;;;;;;;;;;;;;;;-144.99;93.69;52423.63;4980921;28;20039;-66
2024/04/06 08:30:49;;;;;;;;;;;;;;;-144.99;93.80;52395.09;4978165;28;20411;-66
2024/04/06 08:33:15;;;;;;;;;;;;;;;-144.99;94.76;52423.63;4975332;28;20059;-66
2024/04/06 08:35:42;;;;;;;;;;;;;;;-144.99;94.58;52409.38;4985685;28;19932;-66
2024/04/06 08:38:09;;;;;;;;;;;;;;;-144.99;93.10;52458.28;4988912;28;20192;-66
2024/04/06 08:40:40;;;;;;;;;;;;;;;-144.99;92.98;52448.09;4989137;28;20016;-66
2024/04/06 08:43:10;;;;;;;;;;;;;;;-144.99;93.36;52450.13;4991129;28;19929;-66
2024/04/06 08:45:37;;;;;;;;;;;;;;;-144.99;92.79;52435.88;4999423;28;19999;-66
2024/04/06 08:48:03;;;;;;;;;;;;;;;-144.99;91.56;52399.19;4981737;28;20043;-66
2024/04/06 08:50:30;;;;;;;;;;;;;;;-144.99;91.34;52391.03;4983701;28;19934;-66
2024/04/06 08:52:57;;;;;;;;;;;;;;;-144.99;91.87;52452.16;4973453;28;19979;-66
2024/04/06 08:55:23;;;;;;;;;;;;;;;-144.99;91.00;52391.03;4976511;28;20025;-66
2024/04/06 08:57:49;;;;;;;;;;;;;;;-144.99;90.49;52407.31;4980688;28;19961;-66
2024/04/06 09:00:17;;;;;;;;;;;;;;;-144.99;89.62;52386.94;4981268;28;19992;-67
2024/04/06 09:02:43;;;;;;;;;;;;;;;-144.99;88.49;52374.72;4987297;28;20351;-66
2024/04/06 09:05:10;;;;;;;;;;;;;;;-144.99;88.13;52419.56;4984231;28;20443;-67
2024/04/06 09:07:36;;;;;;;;;;;;;;;-144.99;87.98;52403.25;4986101;28;19989;-65
2024/04/06 09:10:04;;;;;;;;;;;;;;;-144.99;87.05;52382.88;4973310;28;20349;-65
2024/04/06 09:12:29;;;;;;;;;;;;;;;-144.99;86.83;52399.19;4979230;28;19932;-65
2024/04/06 09:14:56;;;;;;;;;;;;;;;-144.99;87.60;52411.41;4975020;28;19926;-65
2024/04/06 09:17:22;;;;;;;;;;;;;;;-144.99;88.11;52370.63;4984571;28;19961;-65
2024/04/06 09:19:48;;;;;;;;;;;;;;;-144.99;88.11;52403.25;4987556;28;20020;-66
2024/04/06 09:22:14;;;;;;;;;;;;;;;-144.99;87.07;52386.94;4992554;28;20016;-65
2024/04/06 09:24:40;;;;;;;;;;;;;;;-144.99;87.51;52401.22;4991803;28;20373;-65
2024/04/06 09:27:08;;;;;;;;;;;;;;;-144.99;86.56;52386.94;4990210;28;20447;-66
2024/04/06 09:29:35;;;;;;;;;;;;;;;-144.99;84.84;52393.06;4998733;28;20219;-65
2024/04/06 09:32:01;;;;;;;;;;;;;;;-144.99;83.00;52401.22;4985438;28;19993;-65
2024/04/06 09:34:28;;;;;;;;;;;;;;;-144.99;82.55;52378.78;4981585;28;20003;-66
2024/04/06 09:36:56;;;;;;;;;;;;;;;-144.99;82.75;52388.97;4980598;28;19933;-65
2024/04/06 09:39:23;;;;;;;;;;;;;;;-144.99;81.85;52368.59;4982299;28;20016;-65
2024/04/06 09:41:49;;;;;;;;;;;;;;;-144.99;81.29;52319.69;4985811;28;20300;-65
2024/04/06 09:44:17;;;;;;;;;;;;;;;-144.99;81.56;52395.09;4982030;28;19972;-66
2024/04/06 09:46:43;;;;;;;;;;;;;;;-144.99;80.53;52358.41;4980268;28;20404;-66
2024/04/06 09:49:11;;;;;;;;;;;;;;;-144.99;77.83;52358.41;4986155;28;20390;-66
2024/04/06 09:51:36;;;;;;;;;;;;;;;-144.99;75.90;52331.91;4989365;28;19960;-66
2024/04/06 09:54:03;;;;;;;;;;;;;;;-144.99;74.32;52333.94;4990088;28;19984;-65
2024/04/06 09:56:28;;;;;;;;;;;;;;;-144.99;73.29;52378.78;4987369;28;19956;-66
2024/04/06 09:58:55;;;;;;;;;;;;;;;-144.99;71.85;52370.63;4981312;28;20384;-66
2024/04/06 10:01:22;;;;;;;;;;;;;;;-144.99;72.60;52331.91;4984013;28;20021;-65
2024/04/06 10:03:49;;;;;;;;;;;;;;;-144.99;70.44;52362.50;4985193;28;19926;-65
2024/04/06 10:06:15;;;;;;;;;;;;;;;-144.99;70.73;52366.56;4986706;28;20340;-66
2024/04/06 10:08:49;;;;;;;;;;;;;;;-144.99;71.46;52331.91;4981324;28;20017;-67
2024/04/06 10:11:16;;;;;;;;;;;;;;;-144.99;70.45;52358.41;4982964;28;20300;-66
2024/04/06 10:13:43;;;;;;;;;;;;;;;-144.99;70.81;52380.84;4983818;28;19925;-67
2024/04/06 10:16:12;;;;;;;;;;;;;;;-144.99;71.02;52395.09;4978153;28;19930;-66
2024/04/06 10:18:40;;;;;;;;;;;;;;;-144.99;69.14;52319.69;4983407;28;19966;-66
2024/04/06 10:21:09;;;;;;;;;;;;;;;-144.99;67.44;52317.66;4978066;28;20018;-66
2024/04/06 10:23:39;;;;;;;;;;;;;;;-144.99;67.52;52340.06;4987728;28;19934;-66
2024/04/06 10:26:12;;;;;;;;;;;;;;;-144.99;67.32;52276.88;4987255;28;20214;-66
2024/04/06 10:28:39;;;;;;;;;;;;;;;-144.99;66.72;52321.72;4294320;28;10000713;-66
2024/04/06 10:31:05;;;;;;;;;;;;;;;-144.99;66.52;52297.25;4975339;28;20293;-66
2024/04/06 10:33:31;;;;;;;;;;;;;;;-144.99;66.63;52338.03;4982202;28;19940;-66
2024/04/06 10:35:58;;;;;;;;;;;;;;;-144.99;69.63;52342.09;4984123;28;20009;-66
2024/04/06 10:38:24;;;;;;;;;;;;;;;-144.99;69.85;52313.56;4973629;28;20016;-66
2024/04/06 10:40:50;;;;;;;;;;;;;;;-144.99;67.81;52293.19;4983865;28;19981;-66
2024/04/06 10:43:16;;;;;;;;;;;;;;;-144.99;67.11;52293.19;4973531;28;20033;-66
2024/04/06 10:45:42;;;;;;;;;;;;;;;-144.99;65.80;52240.19;4977689;28;20255;-66
2024/04/06 10:48:08;;;;;;;;;;;;;;;-144.99;64.29;52207.59;4978912;28;19977;-66
2024/04/06 10:50:34;;;;;;;;;;;;;;;-144.99;64.08;52280.97;4986503;28;19981;-66
2024/04/06 10:53:02;;;;;;;;;;;;;;;-144.99;63.92;52293.19;4979892;28;20344;-66
2024/04/06 10:55:28;;;;;;;;;;;;;;;-144.99;65.12;52258.53;4982388;28;19953;-67
2024/04/06 10:57:56;;;;;;;;;;;;;;;-144.99;64.70;52276.88;4986050;28;20211;-66
2024/04/06 11:00:23;;;;;;;;;;;;;;;-144.99;63.53;52285.03;4987390;28;19934;-66
2024/04/06 11:02:50;;;;;;;;;;;;;;;-144.99;62.88;52272.81;4978172;28;19926;-66
2024/04/06 11:05:17;;;;;;;;;;;;;;;-144.99;63.15;52285.03;4979889;28;19973;-66
2024/04/06 11:07:44;;;;;;;;;;;;;;;-144.99;61.27;52248.34;4981982;28;20168;-66
2024/04/06 11:10:11;;;;;;;;;;;;;;;-144.99;61.41;52297.25;4988498;28;19930;-66
2024/04/06 11:12:37;;;;;;;;;;;;;;;-144.99;63.37;52280.97;4976186;28;19929;-66
2024/04/06 11:15:03;;;;;;;;;;;;;;;-144.99;62.53;52199.44;4976411;28;19930;-66
2024/04/06 11:17:30;;;;;;;;;;;;;;;-144.99;61.09;52256.50;4977175;28;20028;-66
2024/04/06 11:19:56;;;;;;;;;;;;;;;-144.99;62.77;52336.00;4983713;28;19941;-66
2024/04/06 11:22:22;;;;;;;;;;;;;;;-144.99;62.00;52350.25;4985917;28;19933;-66
2024/04/06 11:24:48;;;;;;;;;;;;;;;-144.99;62.78;52354.34;4985912;28;19929;-67
2024/04/06 11:27:21;;;;;;;;;;;;;;;-144.99;62.67;52368.59;4979921;28;19930;-66
2024/04/06 11:29:48;;;;;;;;;;;;;;;-144.99;63.54;52329.88;4976225;28;20285;-67
2024/04/06 11:32:19;;;;;;;;;;;;;;;-144.99;65.33;52374.72;4983507;28;19930;-67
2024/04/06 11:34:44;;;;;;;;;;;;;;;-144.99;66.88;52407.31;4981122;28;19929;-66
2024/04/06 11:37:11;;;;;;;;;;;;;;;-144.99;68.34;52415.47;4981404;28;19937;-66
2024/04/06 11:39:36;;;;;;;;;;;;;;;-144.99;68.77;52403.25;4991248;28;19984;-66
2024/04/06 11:42:03;;;;;;;;;;;;;;;-144.99;67.30;52391.03;4989560;28;19989;-67
2024/04/06 11:44:29;;;;;;;;;;;;;;;-144.99;68.04;52399.19;4983124;28;20430;-66
2024/04/06 11:46:56;;;;;;;;;;;;;;;-144.99;67.04;52395.09;4982161;28;19973;-67
2024/04/06 11:49:22;;;;;;;;;;;;;;;-144.99;66.62;52395.09;4980881;28;19961;-66
2024/04/06 11:51:49;;;;;;;;;;;;;;;-144.99;67.92;52411.41;4973724;28;20248;-67
2024/04/06 11:54:14;;;;;;;;;;;;;;;-144.99;67.03;52395.09;4984098;28;20367;-66
2024/04/06 11:56:41;;;;;;;;;;;;;;;-144.99;66.84;52382.88;4973293;28;20017;-66
2024/04/06 11:59:07;;;;;;;;;;;;;;;-144.99;66.88;52407.31;4979162;28;19989;-66
2024/04/06 12:01:36;;;;;;;;;;;;;;;-144.99;66.41;52391.03;4990297;28;19988;-66
2024/04/06 12:04:01;;;;;;;;;;;;;;;-144.99;65.36;52423.63;4980003;28;20292;-66
2024/04/06 12:06:28;;;;;;;;;;;;;;;-144.99;64.55;52409.38;4985978;28;19926;-67
2024/04/06 12:08:53;;;;;;;;;;;;;;;-144.99;64.64;52403.25;4985417;28;19980;-66
2024/04/06 12:11:20;;;;;;;;;;;;;;;-144.99;63.75;52382.88;4991730;28;19933;-66
2024/04/06 12:13:46;;;;;;;;;;;;;;;-144.99;63.35;52386.94;4981017;28;20008;-66
2024/04/06 12:16:12;;;;;;;;;;;;;;;-144.99;63.50;52370.63;4978299;28;20431;-66
2024/04/06 12:18:39;;;;;;;;;;;;;;;-144.99;62.62;52399.19;4975368;28;20304;-68
2024/04/06 12:21:06;;;;;;;;;;;;;;;-144.99;63.48;52421.59;4981501;28;20032;-66